createdAt,value
2018-09-27T00:01:18.719Z,3.13
2018-09-27T00:03:45.817Z,6.63
2018-09-27T00:06:12.934Z,2.43
2018-09-27T00:08:40.313Z,2.10
2018-09-27T00:11:07.460Z,4.93
2018-09-27T00:13:34.610Z,3.07
2018-09-27T00:16:01.761Z,3.73
2018-09-27T00:18:28.884Z,2.53
2018-09-27T00:20:56.257Z,5.47
2018-09-27T00:23:23.406Z,5.53
2018-09-27T00:25:50.501Z,6.20
2018-09-27T00:28:17.610Z,3.20
2018-09-27T00:30:44.720Z,5.47
2018-09-27T00:33:11.816Z,2.77
2018-09-27T00:35:38.917Z,4.23
2018-09-27T00:38:06.017Z,2.77
2018-09-27T00:40:33.354Z,2.10
2018-09-27T00:43:00.534Z,4.23
2018-09-27T00:45:27.692Z,2.43
2018-09-27T00:47:54.906Z,2.83
2018-09-27T00:50:22.023Z,8.53
2018-09-27T00:52:49.103Z,5.13
2018-09-27T00:55:16.214Z,4.77
2018-09-27T00:57:43.318Z,2.53
2018-09-27T01:00:10.445Z,2.13
2018-09-27T01:02:37.802Z,7.13
2018-09-27T01:05:04.902Z,3.07
2018-09-27T01:07:31.993Z,2.40
2018-09-27T01:09:59.349Z,3.83
2018-09-27T01:12:26.726Z,3.47
2018-09-27T01:14:53.846Z,2.70
2018-09-27T01:17:20.946Z,5.83
2018-09-27T01:19:48.314Z,2.70
2018-09-27T01:22:15.430Z,3.73
2018-09-27T01:24:42.554Z,4.57
2018-09-27T01:27:09.678Z,4.53
2018-09-27T01:29:36.785Z,2.10
2018-09-27T01:32:04.104Z,2.07
2018-09-27T01:34:31.292Z,1.87
2018-09-27T01:36:58.605Z,2.53
2018-09-27T01:39:25.748Z,5.23
2018-09-27T01:41:53.084Z,2.27
2018-09-27T01:44:20.176Z,7.03
2018-09-27T01:46:47.269Z,1.87
2018-09-27T01:49:14.514Z,5.93
2018-09-27T01:51:41.661Z,8.97
2018-09-27T01:54:08.799Z,6.53
2018-09-27T01:56:35.936Z,3.87
2018-09-27T01:59:03.795Z,2.17
2018-09-27T02:01:30.955Z,4.17
2018-09-27T02:03:58.159Z,5.83
2018-09-27T02:06:25.649Z,3.13
2018-09-27T02:08:52.800Z,4.57
2018-09-27T02:11:19.925Z,2.03
2018-09-27T02:13:47.052Z,2.30
2018-09-27T02:16:14.158Z,3.30
2018-09-27T02:18:41.307Z,4.63
2018-09-27T02:21:08.468Z,5.37
2018-09-27T02:23:35.592Z,6.60
2018-09-27T02:26:02.755Z,2.70
2018-09-27T02:28:29.994Z,1.90
2018-09-27T02:30:57.192Z,1.50
2018-09-27T02:33:25.145Z,4.93
2018-09-27T02:35:52.282Z,4.50
2018-09-27T02:38:19.394Z,1.87
2018-09-27T02:40:46.516Z,2.40
2018-09-27T02:43:13.643Z,4.80
2018-09-27T02:45:40.754Z,2.90
2018-09-27T02:48:07.915Z,9.23
2018-09-27T02:50:35.024Z,6.63
2018-09-27T02:53:02.146Z,2.20
2018-09-27T02:55:29.296Z,5.27
2018-09-27T02:57:56.670Z,2.70
2018-09-27T03:00:24.276Z,3.83
2018-09-27T03:02:51.427Z,1.30
2018-09-27T03:05:18.565Z,9.30
2018-09-27T03:07:45.688Z,3.77
2018-09-27T03:10:12.793Z,3.47
2018-09-27T03:12:39.900Z,10.90
2018-09-27T03:15:07.030Z,2.63
2018-09-27T03:17:34.148Z,5.03
2018-09-27T03:20:01.301Z,6.67
2018-09-27T03:22:28.432Z,2.53
2018-09-27T03:24:55.581Z,4.07
2018-09-27T03:27:22.693Z,5.07
2018-09-27T03:29:49.824Z,3.30
2018-09-27T03:32:16.978Z,2.43
2018-09-27T03:34:44.135Z,2.00
2018-09-27T03:37:11.372Z,6.67
2018-09-27T03:39:38.565Z,5.00
2018-09-27T03:42:06.040Z,4.60
2018-09-27T03:44:33.137Z,2.50
2018-09-27T03:47:00.264Z,7.03
2018-09-27T03:49:27.377Z,3.73
2018-09-27T03:51:54.491Z,1.53
2018-09-27T03:54:21.644Z,1.73
2018-09-27T03:56:48.751Z,2.10
2018-09-27T03:59:16.015Z,3.87
2018-09-27T04:01:43.195Z,9.57
2018-09-27T04:04:10.615Z,5.20
2018-09-27T04:06:37.828Z,6.23
2018-09-27T04:09:06.330Z,3.23
2018-09-27T04:11:33.459Z,4.63
2018-09-27T04:14:00.574Z,4.30
2018-09-27T04:16:27.707Z,5.87
2018-09-27T04:18:54.820Z,5.40
2018-09-27T04:21:21.947Z,4.30
2018-09-27T04:23:49.083Z,3.50
2018-09-27T04:26:16.210Z,5.27
2018-09-27T04:28:43.333Z,2.70
2018-09-27T04:31:10.510Z,4.53
2018-09-27T04:33:37.674Z,9.47
2018-09-27T04:36:05.207Z,1.47
2018-09-27T04:38:32.355Z,5.10
2018-09-27T04:40:59.487Z,6.17
2018-09-27T04:43:26.599Z,2.53
2018-09-27T04:45:53.775Z,6.73
2018-09-27T04:48:20.853Z,1.83
2018-09-27T04:50:47.965Z,8.57
2018-09-27T04:53:15.065Z,2.10
2018-09-27T04:55:42.207Z,2.60
2018-09-27T04:58:09.398Z,5.33
2018-09-27T05:00:36.638Z,2.97
2018-09-27T05:03:03.763Z,3.67
2018-09-27T05:05:30.883Z,3.43
2018-09-27T05:07:58.000Z,10.03
2018-09-27T05:10:25.115Z,5.53
2018-09-27T05:12:52.257Z,8.00
2018-09-27T05:15:19.376Z,4.73
2018-09-27T05:17:46.502Z,3.57
2018-09-27T05:20:13.663Z,35.17
2018-09-27T05:22:40.863Z,3.30
2018-09-27T05:25:08.034Z,7.47
2018-09-27T05:27:35.181Z,6.30
2018-09-27T05:30:02.349Z,5.43
2018-09-27T05:32:29.472Z,3.17
2018-09-27T05:34:56.591Z,3.53
2018-09-27T05:37:23.723Z,5.10
2018-09-27T05:39:50.852Z,4.10
2018-09-27T05:42:17.993Z,9.20
2018-09-27T05:44:45.167Z,4.53
2018-09-27T05:47:12.454Z,7.37
2018-09-27T05:49:39.763Z,3.63
2018-09-27T05:52:06.939Z,3.67
2018-09-27T05:54:34.591Z,3.50
2018-09-27T05:57:01.708Z,2.20
2018-09-27T05:59:28.820Z,5.27
2018-09-27T06:01:55.967Z,5.97
2018-09-27T06:04:23.064Z,5.23
2018-09-27T06:06:50.210Z,9.63
2018-09-27T06:09:17.322Z,5.33
2018-09-27T06:11:44.489Z,6.73
2018-09-27T06:14:11.737Z,3.63
2018-09-27T06:16:39.047Z,6.27
2018-09-27T06:19:06.834Z,7.93
2018-09-27T06:21:34.015Z,11.07
2018-09-27T06:24:01.139Z,8.50
2018-09-27T06:26:28.512Z,12.57
2018-09-27T06:28:55.639Z,4.17
2018-09-27T06:31:22.788Z,6.87
2018-09-27T06:33:49.907Z,4.97
2018-09-27T06:36:17.047Z,4.90
2018-09-27T06:38:44.280Z,7.30
2018-09-27T06:41:11.409Z,5.07
2018-09-27T06:43:38.619Z,8.33
2018-09-27T06:46:06.387Z,4.30
2018-09-27T06:48:33.551Z,7.07
2018-09-27T06:51:00.644Z,2.13
2018-09-27T06:53:27.767Z,4.47
2018-09-27T06:55:54.942Z,4.70
2018-09-27T06:58:22.014Z,4.63
2018-09-27T07:00:49.197Z,9.00
2018-09-27T07:03:16.315Z,8.10
2018-09-27T07:05:43.490Z,6.60
2018-09-27T07:08:10.763Z,10.17
2018-09-27T07:10:37.950Z,9.37
2018-09-27T07:13:05.460Z,6.07
2018-09-27T07:15:32.649Z,15.80
2018-09-27T07:18:00.287Z,8.33
2018-09-27T07:20:27.420Z,14.33
2018-09-27T07:25:26.688Z,17.15
2018-09-27T07:27:53.787Z,22.37
2018-09-27T07:30:20.903Z,22.90
2018-09-27T07:32:48.040Z,29.52
2018-09-27T07:35:15.221Z,56.10
2018-09-27T07:37:42.851Z,33.78
2018-09-27T07:40:10.077Z,27.25
2018-09-27T07:42:37.527Z,20.60
2018-09-27T07:45:04.802Z,14.78
2018-09-27T07:47:31.967Z,17.23
2018-09-27T07:49:59.115Z,12.28
2018-09-27T07:52:26.305Z,9.65
2018-09-27T07:54:53.535Z,12.80
2018-09-27T07:57:20.585Z,15.88
2018-09-27T07:59:47.711Z,12.82
2018-09-27T08:02:14.841Z,13.68
2018-09-27T08:04:42.102Z,16.07
2018-09-27T08:07:09.264Z,15.23
2018-09-27T08:09:36.434Z,13.38
2018-09-27T08:12:03.627Z,14.50
2018-09-27T08:14:30.759Z,13.50
2018-09-27T08:16:57.916Z,10.15
2018-09-27T08:19:24.969Z,12.13
2018-09-27T08:21:52.091Z,18.23
2018-09-27T08:24:19.207Z,13.60
2018-09-27T08:26:46.335Z,19.95
2018-09-27T08:29:13.486Z,11.93
2018-09-27T08:31:40.663Z,14.68
2018-09-27T08:34:07.822Z,25.43
2018-09-27T08:36:34.975Z,17.60
2018-09-27T08:39:02.164Z,20.40
2018-09-27T08:41:29.279Z,16.07
2018-09-27T08:43:56.399Z,24.10
2018-09-27T08:46:23.516Z,15.00
2018-09-27T08:48:50.640Z,21.80
2018-09-27T08:51:17.760Z,18.70
2018-09-27T08:53:44.910Z,19.90
2018-09-27T08:56:12.326Z,13.60
2018-09-27T08:58:39.284Z,17.90
2018-09-27T09:01:06.495Z,22.57
2018-09-27T09:03:33.697Z,21.30
2018-09-27T09:06:00.744Z,16.47
2018-09-27T09:08:27.889Z,25.77
2018-09-27T09:10:55.003Z,26.20
2018-09-27T09:13:22.178Z,22.67
2018-09-27T09:15:49.480Z,19.67
2018-09-27T09:18:16.631Z,20.07
2018-09-27T09:20:43.944Z,17.30
2018-09-27T09:23:11.083Z,16.63
2018-09-27T09:25:38.282Z,40.80
2018-09-27T09:28:05.387Z,25.30
2018-09-27T09:30:32.522Z,26.80
2018-09-27T09:32:59.771Z,22.60
2018-09-27T09:35:27.152Z,23.63
2018-09-27T09:37:54.338Z,22.40
2018-09-27T09:40:21.571Z,17.10
2018-09-27T09:42:48.679Z,23.03
2018-09-27T09:45:15.836Z,22.50
2018-09-27T09:47:42.972Z,17.70
2018-09-27T09:50:10.197Z,29.03
2018-09-27T09:52:37.251Z,24.73
2018-09-27T09:55:04.807Z,23.87
2018-09-27T09:57:31.930Z,32.53
2018-09-27T09:59:59.114Z,45.57
2018-09-27T10:02:26.323Z,29.40
2018-09-27T10:04:53.712Z,24.73
2018-09-27T10:07:20.878Z,19.50
2018-09-27T10:09:48.002Z,22.33
2018-09-27T10:12:15.131Z,25.47
2018-09-27T10:14:42.263Z,24.07
2018-09-27T10:17:09.423Z,21.57
2018-09-27T10:19:36.787Z,18.97
2018-09-27T10:22:04.130Z,17.47
2018-09-27T10:24:31.209Z,21.07
2018-09-27T10:26:58.421Z,23.70
2018-09-27T10:29:25.585Z,23.27
2018-09-27T10:31:52.799Z,29.30
2018-09-27T10:34:20.054Z,17.47
2018-09-27T10:36:47.153Z,20.93
2018-09-27T10:39:14.310Z,23.17
2018-09-27T10:41:42.274Z,23.80
2018-09-27T10:44:09.413Z,23.70
2018-09-27T10:46:36.540Z,23.17
2018-09-27T10:49:03.726Z,11.67
2018-09-27T10:51:30.860Z,16.17
2018-09-27T10:53:57.963Z,19.60
2018-09-27T10:56:25.187Z,15.97
2018-09-27T10:58:52.347Z,17.00
2018-09-27T11:01:19.459Z,11.63
2018-09-27T11:03:46.656Z,11.60
2018-09-27T11:06:13.763Z,18.17
2018-09-27T11:08:40.868Z,27.57
2018-09-27T11:11:08.069Z,14.10
2018-09-27T11:13:35.505Z,13.80
2018-09-27T11:16:02.614Z,19.37
2018-09-27T11:18:29.764Z,12.70
2018-09-27T11:20:56.968Z,12.67
2018-09-27T11:23:24.180Z,15.67
2018-09-27T11:25:51.501Z,25.40
2018-09-27T11:28:18.647Z,15.10
2018-09-27T11:30:50.443Z,13.83
2018-09-27T11:33:17.569Z,14.97
2018-09-27T11:35:44.712Z,17.30
2018-09-27T11:38:11.839Z,21.37
2018-09-27T11:40:38.963Z,20.70
2018-09-27T11:43:06.115Z,19.70
2018-09-27T11:45:33.254Z,15.93
2018-09-27T11:48:00.394Z,17.73
2018-09-27T11:50:27.650Z,19.30
2018-09-27T11:52:54.905Z,15.83
2018-09-27T11:55:22.151Z,19.07
2018-09-27T11:57:49.297Z,19.93
2018-09-27T12:00:16.486Z,24.47
2018-09-27T12:02:43.618Z,18.93
2018-09-27T12:05:10.755Z,17.13
2018-09-27T12:07:37.965Z,23.17
2018-09-27T12:10:05.043Z,19.10
2018-09-27T12:12:32.163Z,17.67
2018-09-27T12:14:59.437Z,16.80
2018-09-27T12:17:26.707Z,18.90
2018-09-27T12:19:53.865Z,18.43
2018-09-27T12:22:20.930Z,24.60
2018-09-27T12:24:48.090Z,20.10
2018-09-27T12:27:15.443Z,11.97
2018-09-27T12:29:42.682Z,12.97
2018-09-27T12:32:09.868Z,14.80
2018-09-27T12:34:36.980Z,21.13
2018-09-27T12:37:04.148Z,13.67
2018-09-27T12:39:31.289Z,13.90
2018-09-27T12:41:58.659Z,20.60
2018-09-27T12:44:25.646Z,12.93
2018-09-27T12:46:52.804Z,18.73
2018-09-27T12:49:19.904Z,30.50
2018-09-27T12:51:47.244Z,15.47
2018-09-27T12:54:14.187Z,18.73
2018-09-27T12:56:41.346Z,16.40
2018-09-27T12:59:08.603Z,14.70
2018-09-27T13:01:35.882Z,19.77
2018-09-27T13:04:02.998Z,20.07
2018-09-27T13:06:30.148Z,15.67
2018-09-27T13:08:57.427Z,25.50
2018-09-27T13:11:24.616Z,15.70
2018-09-27T13:13:51.787Z,15.63
2018-09-27T13:16:18.972Z,13.57
2018-09-27T13:18:46.101Z,12.13
2018-09-27T13:21:13.234Z,6.90
2018-09-27T13:23:40.347Z,8.30
2018-09-27T13:26:07.746Z,9.30
2018-09-27T13:28:34.916Z,15.63
2018-09-27T13:31:02.104Z,9.03
2018-09-27T13:33:29.302Z,12.53
2018-09-27T13:35:56.489Z,18.27
2018-09-27T13:38:23.641Z,7.27
2018-09-27T13:40:50.766Z,13.30
2018-09-27T13:43:17.896Z,10.63
2018-09-27T13:45:45.013Z,9.80
2018-09-27T13:48:12.127Z,11.43
2018-09-27T13:50:39.257Z,13.67
2018-09-27T13:53:06.403Z,7.73
2018-09-27T13:55:33.555Z,14.63
2018-09-27T13:58:00.705Z,11.53
2018-09-27T14:00:28.102Z,11.33
2018-09-27T14:02:55.308Z,13.17
2018-09-27T14:05:22.477Z,11.47
2018-09-27T14:07:49.574Z,10.50
2018-09-27T14:10:16.727Z,7.90
2018-09-27T14:12:43.851Z,7.17
2018-09-27T14:15:11.074Z,5.60
2018-09-27T14:17:38.190Z,4.57
2018-09-27T14:20:06.466Z,7.77
2018-09-27T14:22:33.591Z,9.83
2018-09-27T14:25:00.890Z,9.27
2018-09-27T14:27:28.006Z,14.13
2018-09-27T14:29:55.216Z,10.00
2018-09-27T14:32:22.605Z,12.23
2018-09-27T14:34:49.739Z,7.30
2018-09-27T14:37:16.860Z,8.23
2018-09-27T14:39:44.075Z,6.57
2018-09-27T14:42:11.218Z,9.83
2018-09-27T14:44:44.126Z,8.13
2018-09-27T14:47:11.292Z,7.43
2018-09-27T14:49:38.571Z,9.53
2018-09-27T14:52:06.014Z,9.53
2018-09-27T14:54:33.190Z,9.93
2018-09-27T14:57:00.327Z,7.50
2018-09-27T14:59:27.570Z,9.17
2018-09-27T15:01:54.856Z,8.13
2018-09-27T15:04:21.934Z,10.53
2018-09-27T15:06:49.212Z,9.30
2018-09-27T15:09:16.208Z,5.10
2018-09-27T15:11:43.347Z,9.70
2018-09-27T15:14:10.495Z,6.23
2018-09-27T15:16:37.658Z,11.53
2018-09-27T15:19:04.835Z,4.57
2018-09-27T15:21:32.040Z,7.03
2018-09-27T15:23:59.937Z,13.23
2018-09-27T15:26:27.177Z,8.23
2018-09-27T15:28:54.417Z,10.07
2018-09-27T15:31:21.568Z,7.33
2018-09-27T15:33:48.719Z,10.90
2018-09-27T15:36:15.881Z,12.33
2018-09-27T15:38:42.974Z,7.80
2018-09-27T15:41:10.085Z,6.77
2018-09-27T15:43:37.200Z,12.73
2018-09-27T15:46:04.370Z,9.07
2018-09-27T15:48:31.638Z,7.00
2018-09-27T15:50:58.838Z,9.10
2018-09-27T15:53:26.034Z,14.03
2018-09-27T15:55:53.167Z,10.37
2018-09-27T15:58:20.368Z,16.67
2018-09-27T16:00:47.545Z,8.50
2018-09-27T16:03:14.675Z,8.93
2018-09-27T16:05:41.780Z,8.80
2018-09-27T16:08:08.920Z,8.23
2018-09-27T16:10:36.054Z,5.00
2018-09-27T16:13:03.243Z,12.20
2018-09-27T16:15:30.670Z,6.37
2018-09-27T16:17:57.910Z,5.03
2018-09-27T16:20:25.128Z,8.13
2018-09-27T16:22:52.709Z,9.73
2018-09-27T16:25:19.878Z,5.53
2018-09-27T16:27:47.011Z,6.63
2018-09-27T16:30:14.122Z,13.17
2018-09-27T16:32:41.222Z,4.43
2018-09-27T16:35:08.426Z,3.87
2018-09-27T16:37:35.577Z,17.17
2018-09-27T16:40:02.899Z,7.80
2018-09-27T16:42:30.103Z,6.63
2018-09-27T16:44:57.261Z,10.07
2018-09-27T16:47:24.420Z,7.53
2018-09-27T16:49:51.556Z,14.07
2018-09-27T16:52:18.675Z,10.37
2018-09-27T16:54:45.989Z,17.17
2018-09-27T16:57:13.157Z,6.03
2018-09-27T16:59:40.308Z,7.77
2018-09-27T17:02:07.561Z,5.70
2018-09-27T17:04:34.676Z,4.40
2018-09-27T17:07:02.108Z,7.80
2018-09-27T17:09:29.416Z,3.97
2018-09-27T17:11:56.582Z,4.23
2018-09-27T17:14:23.759Z,3.93
2018-09-27T17:16:50.874Z,4.23
2018-09-27T17:19:18.035Z,3.03
2018-09-27T17:21:45.155Z,4.83
2018-09-27T17:24:12.307Z,2.70
2018-09-27T17:26:39.433Z,4.13
2018-09-27T17:29:06.574Z,9.50
2018-09-27T17:31:33.773Z,7.40
2018-09-27T17:34:00.891Z,3.50
2018-09-27T17:36:28.122Z,8.00
2018-09-27T17:38:55.288Z,4.23
2018-09-27T17:41:22.433Z,4.33
2018-09-27T17:43:49.570Z,5.47
2018-09-27T17:46:16.701Z,4.23
2018-09-27T17:48:43.817Z,3.20
2018-09-27T17:51:10.955Z,5.13
2018-09-27T17:53:38.076Z,4.37
2018-09-27T17:56:05.528Z,6.77
2018-09-27T17:58:32.875Z,5.00
2018-09-27T18:01:00.209Z,7.13
2018-09-27T18:03:27.484Z,4.37
2018-09-27T18:05:55.016Z,5.73
2018-09-27T18:08:22.136Z,3.53
2018-09-27T18:10:49.277Z,4.30
2018-09-27T18:13:16.415Z,3.83
2018-09-27T18:15:43.542Z,4.97
2018-09-27T18:18:10.809Z,5.33
2018-09-27T18:20:37.952Z,3.17
2018-09-27T18:23:05.223Z,3.20
2018-09-27T18:25:32.711Z,2.90
2018-09-27T18:27:59.942Z,2.73
2018-09-27T18:30:27.242Z,7.00
2018-09-27T18:32:54.559Z,3.17
2018-09-27T18:35:21.759Z,2.17
2018-09-27T18:37:48.916Z,9.10
2018-09-27T18:40:16.109Z,5.70
2018-09-27T18:42:43.187Z,4.07
2018-09-27T18:45:10.326Z,3.60
2018-09-27T18:47:37.542Z,3.33
2018-09-27T18:50:04.951Z,4.10
2018-09-27T18:52:32.207Z,3.97
2018-09-27T18:54:59.563Z,5.70
2018-09-27T18:57:26.893Z,7.23
2018-09-27T18:59:54.023Z,8.10
2018-09-27T19:02:21.151Z,7.40
2018-09-27T19:04:48.271Z,4.87
2018-09-27T19:07:15.417Z,7.00
2018-09-27T19:09:42.591Z,7.33
2018-09-27T19:12:09.753Z,4.97
2018-09-27T19:14:36.932Z,3.50
2018-09-27T19:17:04.259Z,5.77
2018-09-27T19:19:31.680Z,4.13
2018-09-27T19:21:58.992Z,3.93
2018-09-27T19:24:26.577Z,5.03
2018-09-27T19:26:53.806Z,3.53
2018-09-27T19:29:20.959Z,8.37
2018-09-27T19:31:48.097Z,4.93
2018-09-27T19:34:15.264Z,5.27
2018-09-27T19:36:42.399Z,4.23
2018-09-27T19:39:09.747Z,4.73
2018-09-27T19:41:37.014Z,4.07
2018-09-27T19:44:04.276Z,2.73
2018-09-27T19:46:31.627Z,4.67
2018-09-27T19:48:58.901Z,5.60
2018-09-27T19:51:26.295Z,4.83
2018-09-27T19:53:53.470Z,3.97
2018-09-27T19:56:20.739Z,5.70
2018-09-27T19:58:47.890Z,5.53
2018-09-27T20:01:15.136Z,2.80
2018-09-27T20:03:42.325Z,6.40
2018-09-27T20:06:09.454Z,4.03
2018-09-27T20:08:36.654Z,4.97
2018-09-27T20:11:03.825Z,3.53
2018-09-27T20:13:31.144Z,4.97
2018-09-27T20:15:58.481Z,4.40
2018-09-27T20:18:25.708Z,4.37
2018-09-27T20:20:52.897Z,4.97
2018-09-27T20:23:20.020Z,5.03
2018-09-27T20:25:47.162Z,8.37
2018-09-27T20:28:14.365Z,3.93
2018-09-27T20:30:41.455Z,2.60
2018-09-27T20:33:08.633Z,7.37
2018-09-27T20:35:36.091Z,5.80
2018-09-27T20:38:03.239Z,4.37
2018-09-27T20:40:30.417Z,3.97
2018-09-27T20:42:57.594Z,3.73
2018-09-27T20:45:24.736Z,8.27
2018-09-27T20:47:51.862Z,5.30
2018-09-27T20:50:19.032Z,6.33
2018-09-27T20:52:46.153Z,8.87
2018-09-27T20:55:13.285Z,9.77
2018-09-27T20:57:40.398Z,3.17
2018-09-27T21:00:07.674Z,6.10
2018-09-27T21:02:34.828Z,4.13
2018-09-27T21:05:02.003Z,6.00
2018-09-27T21:07:29.248Z,6.10
2018-09-27T21:09:56.410Z,6.37
2018-09-27T21:12:23.554Z,4.20
2018-09-27T21:14:50.703Z,9.87
2018-09-27T21:17:17.849Z,6.07
2018-09-27T21:19:44.966Z,8.03
2018-09-27T21:22:12.114Z,9.07
2018-09-27T21:24:39.275Z,5.97
2018-09-27T21:27:06.414Z,4.27
2018-09-27T21:29:33.509Z,4.07
2018-09-27T21:32:00.655Z,4.37
2018-09-27T21:34:27.783Z,5.37
2018-09-27T21:36:54.967Z,6.37
2018-09-27T21:39:22.089Z,3.90
2018-09-27T21:41:49.210Z,3.57
2018-09-27T21:44:16.342Z,5.37
2018-09-27T21:46:43.483Z,8.17
2018-09-27T21:49:10.582Z,5.60
2018-09-27T21:51:37.725Z,4.07
2018-09-27T21:54:04.846Z,5.97
2018-09-27T21:56:32.015Z,5.43
2018-09-27T21:58:59.216Z,8.50
2018-09-27T22:01:26.674Z,5.77
2018-09-27T22:03:53.807Z,11.37
2018-09-27T22:06:20.933Z,5.50
2018-09-27T22:08:48.070Z,4.40
2018-09-27T22:11:15.219Z,7.97
2018-09-27T22:13:42.327Z,4.83
2018-09-27T22:16:09.461Z,5.47
2018-09-27T22:18:36.664Z,5.90
2018-09-27T22:21:03.936Z,6.70
2018-09-27T22:23:31.143Z,4.37
2018-09-27T22:25:58.298Z,6.97
2018-09-27T22:28:25.564Z,6.33
2018-09-27T22:30:52.713Z,6.00
2018-09-27T22:33:19.831Z,4.43
2018-09-27T22:35:46.951Z,4.67
2018-09-27T22:38:14.055Z,9.40
2018-09-27T22:40:41.207Z,6.47
2018-09-27T22:43:08.493Z,3.13
2018-09-27T22:45:35.741Z,4.47
2018-09-27T22:48:02.938Z,8.07
2018-09-27T22:50:30.116Z,3.80
2018-09-27T22:52:57.468Z,6.57
2018-09-27T22:55:24.668Z,6.90
2018-09-27T22:57:51.865Z,6.60
2018-09-27T23:00:19.018Z,8.27
2018-09-27T23:02:46.135Z,4.60
2018-09-27T23:05:13.234Z,5.07
2018-09-27T23:07:40.380Z,4.40
2018-09-27T23:10:07.497Z,3.70
2018-09-27T23:12:34.610Z,3.73
2018-09-27T23:15:01.788Z,7.67
2018-09-27T23:17:28.975Z,8.80
2018-09-27T23:19:56.229Z,5.70
2018-09-27T23:22:23.338Z,3.87
2018-09-27T23:24:50.466Z,6.67
2018-09-27T23:27:17.577Z,4.63
2018-09-27T23:29:44.698Z,9.10
2018-09-27T23:32:11.834Z,6.23
2018-09-27T23:34:38.943Z,3.23
2018-09-27T23:37:06.315Z,6.07
2018-09-27T23:39:33.438Z,6.93
2018-09-27T23:42:00.650Z,4.00
2018-09-27T23:44:27.816Z,7.00
2018-09-27T23:46:55.055Z,3.80
2018-09-27T23:49:22.181Z,4.43
2018-09-27T23:51:49.293Z,5.63
2018-09-27T23:54:16.411Z,9.07
2018-09-27T23:56:43.514Z,6.47
2018-09-27T23:59:10.625Z,6.23
